sensor_id;sensor_type;location;lat;lon;timestamp;temperature;humidity
55211;DHT22;41082;52.822;6.666;2024-03-06T00:02:18;6.30;99.90
55211;DHT22;41082;52.822;6.666;2024-03-06T00:04:44;6.30;99.90
55211;DHT22;41082;52.822;6.666;2024-03-06T00:07:10;6.30;99.90
55211;DHT22;41082;52.822;6.666;2024-03-06T00:09:36;6.30;99.90
55211;DHT22;41082;52.822;6.666;2024-03-06T00:12:02;6.20;99.90
55211;DHT22;41082;52.822;6.666;2024-03-06T00:14:28;6.30;99.90
55211;DHT22;41082;52.822;6.666;2024-03-06T00:16:54;6.30;99.90
55211;DHT22;41082;52.822;6.666;2024-03-06T00:19:21;6.20;99.90
55211;DHT22;41082;52.822;6.666;2024-03-06T00:21:56;6.20;99.90
55211;DHT22;41082;52.822;6.666;2024-03-06T00:24:22;6.20;99.90
55211;DHT22;41082;52.822;6.666;2024-03-06T00:26:48;6.20;99.90
55211;DHT22;41082;52.822;6.666;2024-03-06T00:29:14;6.20;99.90
55211;DHT22;41082;52.822;6.666;2024-03-06T00:31:44;6.20;99.90
55211;DHT22;41082;52.822;6.666;2024-03-06T00:34:13;6.20;99.90
55211;DHT22;41082;52.822;6.666;2024-03-06T00:36:42;6.20;99.90
55211;DHT22;41082;52.822;6.666;2024-03-06T00:39:07;6.20;99.90
55211;DHT22;41082;52.822;6.666;2024-03-06T00:41:34;6.10;99.90
55211;DHT22;41082;52.822;6.666;2024-03-06T00:44:00;6.20;99.90
55211;DHT22;41082;52.822;6.666;2024-03-06T00:46:25;6.10;99.90
55211;DHT22;41082;52.822;6.666;2024-03-06T00:48:51;6.10;99.90
55211;DHT22;41082;52.822;6.666;2024-03-06T00:51:17;6.10;99.90
55211;DHT22;41082;52.822;6.666;2024-03-06T00:53:43;6.10;99.90
55211;DHT22;41082;52.822;6.666;2024-03-06T00:56:08;6.10;99.90
55211;DHT22;41082;52.822;6.666;2024-03-06T00:58:34;6.10;99.90
55211;DHT22;41082;52.822;6.666;2024-03-06T01:01:00;6.10;99.90
55211;DHT22;41082;52.822;6.666;2024-03-06T01:03:25;6.10;99.90
55211;DHT22;41082;52.822;6.666;2024-03-06T01:05:51;6.10;99.90
55211;DHT22;41082;52.822;6.666;2024-03-06T01:08:22;6.00;99.90
55211;DHT22;41082;52.822;6.666;2024-03-06T01:10:50;6.00;99.90
55211;DHT22;41082;52.822;6.666;2024-03-06T01:13:16;6.10;99.90
55211;DHT22;41082;52.822;6.666;2024-03-06T01:15:41;6.00;99.90
55211;DHT22;41082;52.822;6.666;2024-03-06T01:18:07;6.00;99.90
55211;DHT22;41082;52.822;6.666;2024-03-06T01:20:33;6.00;99.90
55211;DHT22;41082;52.822;6.666;2024-03-06T01:22:58;5.90;99.90
55211;DHT22;41082;52.822;6.666;2024-03-06T01:25:24;5.90;99.90
55211;DHT22;41082;52.822;6.666;2024-03-06T01:27:49;5.90;99.90
55211;DHT22;41082;52.822;6.666;2024-03-06T01:30:15;5.90;99.90
55211;DHT22;41082;52.822;6.666;2024-03-06T01:32:41;5.90;99.90
55211;DHT22;41082;52.822;6.666;2024-03-06T01:35:06;5.80;99.90
55211;DHT22;41082;52.822;6.666;2024-03-06T01:37:32;5.90;99.90
55211;DHT22;41082;52.822;6.666;2024-03-06T01:39:58;5.80;99.90
55211;DHT22;41082;52.822;6.666;2024-03-06T01:42:24;5.80;99.90
55211;DHT22;41082;52.822;6.666;2024-03-06T01:44:49;5.80;99.90
55211;DHT22;41082;52.822;6.666;2024-03-06T01:47:15;5.80;99.90
55211;DHT22;41082;52.822;6.666;2024-03-06T01:49:41;5.80;99.90
55211;DHT22;41082;52.822;6.666;2024-03-06T01:52:10;5.80;99.90
55211;DHT22;41082;52.822;6.666;2024-03-06T01:54:37;5.80;99.90
55211;DHT22;41082;52.822;6.666;2024-03-06T01:57:04;5.80;99.90
55211;DHT22;41082;52.822;6.666;2024-03-06T01:59:32;5.80;99.90
55211;DHT22;41082;52.822;6.666;2024-03-06T02:01:57;5.80;99.90
55211;DHT22;41082;52.822;6.666;2024-03-06T02:04:24;5.80;99.90
55211;DHT22;41082;52.822;6.666;2024-03-06T02:06:51;5.80;99.90
55211;DHT22;41082;52.822;6.666;2024-03-06T02:09:17;5.80;99.90
55211;DHT22;41082;52.822;6.666;2024-03-06T02:11:45;5.80;99.90
55211;DHT22;41082;52.822;6.666;2024-03-06T02:14:10;5.80;99.90
55211;DHT22;41082;52.822;6.666;2024-03-06T02:16:36;5.80;99.90
55211;DHT22;41082;52.822;6.666;2024-03-06T02:19:04;5.80;99.90
55211;DHT22;41082;52.822;6.666;2024-03-06T02:21:30;5.80;99.90
55211;DHT22;41082;52.822;6.666;2024-03-06T02:23:56;5.80;99.90
55211;DHT22;41082;52.822;6.666;2024-03-06T02:26:22;5.80;99.90
55211;DHT22;41082;52.822;6.666;2024-03-06T02:28:53;5.80;99.90
55211;DHT22;41082;52.822;6.666;2024-03-06T02:31:20;5.80;99.90
55211;DHT22;41082;52.822;6.666;2024-03-06T02:33:47;5.80;99.90
55211;DHT22;41082;52.822;6.666;2024-03-06T02:36:17;5.80;99.90
55211;DHT22;41082;52.822;6.666;2024-03-06T02:38:43;5.80;99.90
55211;DHT22;41082;52.822;6.666;2024-03-06T02:41:10;5.80;99.90
55211;DHT22;41082;52.822;6.666;2024-03-06T02:43:36;5.80;99.90
55211;DHT22;41082;52.822;6.666;2024-03-06T02:46:02;5.80;99.90
55211;DHT22;41082;52.822;6.666;2024-03-06T02:48:28;5.80;99.90
55211;DHT22;41082;52.822;6.666;2024-03-06T02:50:55;5.90;99.90
55211;DHT22;41082;52.822;6.666;2024-03-06T02:53:20;5.80;99.90
55211;DHT22;41082;52.822;6.666;2024-03-06T02:55:46;5.80;99.90
55211;DHT22;41082;52.822;6.666;2024-03-06T02:58:12;5.80;99.90
55211;DHT22;41082;52.822;6.666;2024-03-06T03:00:39;5.80;99.90
55211;DHT22;41082;52.822;6.666;2024-03-06T03:03:06;5.80;99.90
55211;DHT22;41082;52.822;6.666;2024-03-06T03:05:32;5.80;99.90
55211;DHT22;41082;52.822;6.666;2024-03-06T03:07:59;5.80;99.90
55211;DHT22;41082;52.822;6.666;2024-03-06T03:10:24;5.80;99.90
55211;DHT22;41082;52.822;6.666;2024-03-06T03:12:50;5.80;99.90
55211;DHT22;41082;52.822;6.666;2024-03-06T03:15:16;5.80;99.90
55211;DHT22;41082;52.822;6.666;2024-03-06T03:17:42;5.80;99.90
55211;DHT22;41082;52.822;6.666;2024-03-06T03:20:08;5.80;99.90
55211;DHT22;41082;52.822;6.666;2024-03-06T03:22:37;5.80;99.90
55211;DHT22;41082;52.822;6.666;2024-03-06T03:25:07;5.70;99.90
55211;DHT22;41082;52.822;6.666;2024-03-06T03:27:33;5.70;99.90
55211;DHT22;41082;52.822;6.666;2024-03-06T03:29:59;5.80;99.90
55211;DHT22;41082;52.822;6.666;2024-03-06T03:32:25;5.70;99.90
55211;DHT22;41082;52.822;6.666;2024-03-06T03:34:50;5.70;99.90
55211;DHT22;41082;52.822;6.666;2024-03-06T03:37:16;5.70;99.90
55211;DHT22;41082;52.822;6.666;2024-03-06T03:39:44;5.70;99.90
55211;DHT22;41082;52.822;6.666;2024-03-06T03:42:10;5.70;99.90
55211;DHT22;41082;52.822;6.666;2024-03-06T03:44:35;5.70;99.90
55211;DHT22;41082;52.822;6.666;2024-03-06T03:47:01;5.70;99.90
55211;DHT22;41082;52.822;6.666;2024-03-06T03:49:27;5.70;99.90
55211;DHT22;41082;52.822;6.666;2024-03-06T03:51:53;5.70;99.90
55211;DHT22;41082;52.822;6.666;2024-03-06T03:54:18;5.70;99.90
55211;DHT22;41082;52.822;6.666;2024-03-06T03:56:44;5.70;99.90
55211;DHT22;41082;52.822;6.666;2024-03-06T03:59:10;5.70;99.90
55211;DHT22;41082;52.822;6.666;2024-03-06T04:01:35;5.70;99.90
55211;DHT22;41082;52.822;6.666;2024-03-06T04:04:01;5.70;99.90
55211;DHT22;41082;52.822;6.666;2024-03-06T04:06:26;5.70;99.90
55211;DHT22;41082;52.822;6.666;2024-03-06T04:08:52;5.70;99.90
55211;DHT22;41082;52.822;6.666;2024-03-06T04:11:18;5.70;99.90
55211;DHT22;41082;52.822;6.666;2024-03-06T04:13:44;5.70;99.90
55211;DHT22;41082;52.822;6.666;2024-03-06T04:16:09;5.70;99.90
55211;DHT22;41082;52.822;6.666;2024-03-06T04:18:35;5.70;99.90
55211;DHT22;41082;52.822;6.666;2024-03-06T04:21:07;5.70;99.90
55211;DHT22;41082;52.822;6.666;2024-03-06T04:23:33;5.70;99.90
55211;DHT22;41082;52.822;6.666;2024-03-06T04:25:59;5.70;99.90
55211;DHT22;41082;52.822;6.666;2024-03-06T04:28:25;5.70;99.90
55211;DHT22;41082;52.822;6.666;2024-03-06T04:30:51;5.70;99.90
55211;DHT22;41082;52.822;6.666;2024-03-06T04:33:16;5.70;99.90
55211;DHT22;41082;52.822;6.666;2024-03-06T04:35:42;5.70;99.90
55211;DHT22;41082;52.822;6.666;2024-03-06T04:38:08;5.70;99.90
55211;DHT22;41082;52.822;6.666;2024-03-06T04:40:34;5.70;99.90
55211;DHT22;41082;52.822;6.666;2024-03-06T04:43:00;5.70;99.90
55211;DHT22;41082;52.822;6.666;2024-03-06T04:45:26;5.70;99.90
55211;DHT22;41082;52.822;6.666;2024-03-06T04:47:51;5.70;99.90
55211;DHT22;41082;52.822;6.666;2024-03-06T04:50:17;5.70;99.90
55211;DHT22;41082;52.822;6.666;2024-03-06T04:52:43;5.60;99.90
55211;DHT22;41082;52.822;6.666;2024-03-06T04:55:10;5.70;99.90
55211;DHT22;41082;52.822;6.666;2024-03-06T04:57:37;5.70;99.90
55211;DHT22;41082;52.822;6.666;2024-03-06T05:00:03;5.70;99.90
55211;DHT22;41082;52.822;6.666;2024-03-06T05:02:35;5.70;99.90
55211;DHT22;41082;52.822;6.666;2024-03-06T05:05:03;5.70;99.90
55211;DHT22;41082;52.822;6.666;2024-03-06T05:07:29;5.70;99.90
55211;DHT22;41082;52.822;6.666;2024-03-06T05:09:56;5.80;99.90
55211;DHT22;41082;52.822;6.666;2024-03-06T05:12:23;5.70;99.90
55211;DHT22;41082;52.822;6.666;2024-03-06T05:14:49;5.70;99.90
55211;DHT22;41082;52.822;6.666;2024-03-06T05:17:14;5.70;99.90
55211;DHT22;41082;52.822;6.666;2024-03-06T05:19:40;5.70;99.90
55211;DHT22;41082;52.822;6.666;2024-03-06T05:22:05;5.70;99.90
55211;DHT22;41082;52.822;6.666;2024-03-06T05:24:31;5.70;99.90
55211;DHT22;41082;52.822;6.666;2024-03-06T05:26:57;5.70;99.90
55211;DHT22;41082;52.822;6.666;2024-03-06T05:29:22;5.70;99.90
55211;DHT22;41082;52.822;6.666;2024-03-06T05:31:48;5.70;99.90
55211;DHT22;41082;52.822;6.666;2024-03-06T05:34:13;5.70;99.90
55211;DHT22;41082;52.822;6.666;2024-03-06T05:36:39;5.70;99.90
55211;DHT22;41082;52.822;6.666;2024-03-06T05:39:04;5.70;99.90
55211;DHT22;41082;52.822;6.666;2024-03-06T05:41:40;5.70;99.90
55211;DHT22;41082;52.822;6.666;2024-03-06T05:44:07;5.70;99.90
55211;DHT22;41082;52.822;6.666;2024-03-06T05:46:33;5.70;99.90
55211;DHT22;41082;52.822;6.666;2024-03-06T05:48:59;5.70;99.90
55211;DHT22;41082;52.822;6.666;2024-03-06T05:51:24;5.70;99.90
55211;DHT22;41082;52.822;6.666;2024-03-06T05:53:50;5.80;99.90
55211;DHT22;41082;52.822;6.666;2024-03-06T05:56:17;5.70;99.90
55211;DHT22;41082;52.822;6.666;2024-03-06T05:58:43;5.70;99.90
55211;DHT22;41082;52.822;6.666;2024-03-06T06:01:13;5.80;99.90
55211;DHT22;41082;52.822;6.666;2024-03-06T06:03:44;5.80;99.90
55211;DHT22;41082;52.822;6.666;2024-03-06T06:06:10;5.80;99.90
55211;DHT22;41082;52.822;6.666;2024-03-06T06:08:35;5.80;99.90
55211;DHT22;41082;52.822;6.666;2024-03-06T06:11:02;5.80;99.90
55211;DHT22;41082;52.822;6.666;2024-03-06T06:13:30;5.80;99.90
55211;DHT22;41082;52.822;6.666;2024-03-06T06:15:59;5.80;99.90
55211;DHT22;41082;52.822;6.666;2024-03-06T06:18:28;5.80;99.90
55211;DHT22;41082;52.822;6.666;2024-03-06T06:20:53;5.80;99.90
55211;DHT22;41082;52.822;6.666;2024-03-06T06:23:19;5.80;99.90
55211;DHT22;41082;52.822;6.666;2024-03-06T06:25:45;5.80;99.90
55211;DHT22;41082;52.822;6.666;2024-03-06T06:28:11;5.80;99.90
55211;DHT22;41082;52.822;6.666;2024-03-06T06:30:37;5.80;99.90
55211;DHT22;41082;52.822;6.666;2024-03-06T06:33:04;5.80;99.90
55211;DHT22;41082;52.822;6.666;2024-03-06T06:35:30;5.80;99.90
55211;DHT22;41082;52.822;6.666;2024-03-06T06:37:56;5.80;99.90
55211;DHT22;41082;52.822;6.666;2024-03-06T06:40:22;5.80;99.90
55211;DHT22;41082;52.822;6.666;2024-03-06T06:42:48;5.80;99.90
55211;DHT22;41082;52.822;6.666;2024-03-06T06:45:18;5.80;99.90
55211;DHT22;41082;52.822;6.666;2024-03-06T06:47:45;5.80;99.90
55211;DHT22;41082;52.822;6.666;2024-03-06T06:50:10;5.70;99.90
55211;DHT22;41082;52.822;6.666;2024-03-06T06:52:38;5.70;99.90
55211;DHT22;41082;52.822;6.666;2024-03-06T06:55:04;5.70;99.90
55211;DHT22;41082;52.822;6.666;2024-03-06T06:57:30;5.80;99.90
55211;DHT22;41082;52.822;6.666;2024-03-06T06:59:56;5.80;99.90
55211;DHT22;41082;52.822;6.666;2024-03-06T07:02:22;5.70;99.90
55211;DHT22;41082;52.822;6.666;2024-03-06T07:04:48;5.80;99.90
55211;DHT22;41082;52.822;6.666;2024-03-06T07:07:14;5.70;99.90
55211;DHT22;41082;52.822;6.666;2024-03-06T07:09:40;5.70;99.90
55211;DHT22;41082;52.822;6.666;2024-03-06T07:12:06;5.70;99.90
55211;DHT22;41082;52.822;6.666;2024-03-06T07:14:33;5.70;99.90
55211;DHT22;41082;52.822;6.666;2024-03-06T07:16:58;5.80;99.90
55211;DHT22;41082;52.822;6.666;2024-03-06T07:19:24;5.80;99.90
55211;DHT22;41082;52.822;6.666;2024-03-06T07:21:50;5.80;99.90
55211;DHT22;41082;52.822;6.666;2024-03-06T07:24:15;5.80;99.90
55211;DHT22;41082;52.822;6.666;2024-03-06T07:26:41;5.80;99.90
55211;DHT22;41082;52.822;6.666;2024-03-06T07:29:07;5.90;99.90
55211;DHT22;41082;52.822;6.666;2024-03-06T07:31:43;5.90;99.90
55211;DHT22;41082;52.822;6.666;2024-03-06T07:34:13;5.80;99.90
55211;DHT22;41082;52.822;6.666;2024-03-06T07:36:38;5.90;99.90
55211;DHT22;41082;52.822;6.666;2024-03-06T07:39:04;5.90;99.90
55211;DHT22;41082;52.822;6.666;2024-03-06T07:41:30;5.90;99.90
55211;DHT22;41082;52.822;6.666;2024-03-06T07:43:58;5.90;99.90
55211;DHT22;41082;52.822;6.666;2024-03-06T07:46:25;5.90;99.90
55211;DHT22;41082;52.822;6.666;2024-03-06T07:48:51;5.90;99.90
55211;DHT22;41082;52.822;6.666;2024-03-06T07:51:17;5.90;99.90
55211;DHT22;41082;52.822;6.666;2024-03-06T07:53:43;6.00;99.90
55211;DHT22;41082;52.822;6.666;2024-03-06T07:56:10;5.90;99.90
55211;DHT22;41082;52.822;6.666;2024-03-06T07:58:37;6.00;99.90
55211;DHT22;41082;52.822;6.666;2024-03-06T08:01:03;6.00;99.90
55211;DHT22;41082;52.822;6.666;2024-03-06T08:03:28;6.00;99.90
55211;DHT22;41082;52.822;6.666;2024-03-06T08:05:54;6.00;99.90
55211;DHT22;41082;52.822;6.666;2024-03-06T08:08:20;6.00;99.90
55211;DHT22;41082;52.822;6.666;2024-03-06T08:10:46;6.00;99.90
55211;DHT22;41082;52.822;6.666;2024-03-06T08:13:12;6.00;99.90
55211;DHT22;41082;52.822;6.666;2024-03-06T08:15:38;6.00;99.90
55211;DHT22;41082;52.822;6.666;2024-03-06T08:18:03;6.10;99.90
55211;DHT22;41082;52.822;6.666;2024-03-06T08:20:29;6.10;99.90
55211;DHT22;41082;52.822;6.666;2024-03-06T08:22:56;6.10;99.90
55211;DHT22;41082;52.822;6.666;2024-03-06T08:25:22;6.20;99.90
55211;DHT22;41082;52.822;6.666;2024-03-06T08:27:48;6.20;99.90
55211;DHT22;41082;52.822;6.666;2024-03-06T08:30:14;6.30;99.90
55211;DHT22;41082;52.822;6.666;2024-03-06T08:32:39;6.30;99.90
55211;DHT22;41082;52.822;6.666;2024-03-06T08:35:08;6.30;99.90
55211;DHT22;41082;52.822;6.666;2024-03-06T08:37:36;6.30;99.90
55211;DHT22;41082;52.822;6.666;2024-03-06T08:40:02;6.30;99.90
55211;DHT22;41082;52.822;6.666;2024-03-06T08:42:28;6.30;99.90
55211;DHT22;41082;52.822;6.666;2024-03-06T08:44:54;6.30;99.90
55211;DHT22;41082;52.822;6.666;2024-03-06T08:47:20;6.40;99.90
55211;DHT22;41082;52.822;6.666;2024-03-06T08:49:46;6.40;99.90
55211;DHT22;41082;52.822;6.666;2024-03-06T08:52:12;6.50;99.90
55211;DHT22;41082;52.822;6.666;2024-03-06T08:54:39;6.50;99.90
55211;DHT22;41082;52.822;6.666;2024-03-06T08:57:06;6.60;99.90
55211;DHT22;41082;52.822;6.666;2024-03-06T08:59:34;6.60;99.90
55211;DHT22;41082;52.822;6.666;2024-03-06T09:02:12;6.70;99.90
55211;DHT22;41082;52.822;6.666;2024-03-06T09:04:40;6.70;99.90
55211;DHT22;41082;52.822;6.666;2024-03-06T09:07:06;6.80;99.90
55211;DHT22;41082;52.822;6.666;2024-03-06T09:09:32;6.80;99.90
55211;DHT22;41082;52.822;6.666;2024-03-06T09:12:00;6.80;99.90
55211;DHT22;41082;52.822;6.666;2024-03-06T09:14:26;6.90;99.90
55211;DHT22;41082;52.822;6.666;2024-03-06T09:16:51;6.90;99.90
55211;DHT22;41082;52.822;6.666;2024-03-06T09:19:17;6.90;99.90
55211;DHT22;41082;52.822;6.666;2024-03-06T09:21:42;7.00;99.90
55211;DHT22;41082;52.822;6.666;2024-03-06T09:24:08;7.00;99.90
55211;DHT22;41082;52.822;6.666;2024-03-06T09:26:34;7.00;99.90
55211;DHT22;41082;52.822;6.666;2024-03-06T09:29:00;7.00;99.90
55211;DHT22;41082;52.822;6.666;2024-03-06T09:31:26;7.10;99.90
55211;DHT22;41082;52.822;6.666;2024-03-06T09:33:53;7.10;99.90
55211;DHT22;41082;52.822;6.666;2024-03-06T09:36:19;7.10;99.90
55211;DHT22;41082;52.822;6.666;2024-03-06T09:38:45;7.10;99.90
55211;DHT22;41082;52.822;6.666;2024-03-06T09:41:11;7.10;99.90
55211;DHT22;41082;52.822;6.666;2024-03-06T09:43:36;7.20;99.90
55211;DHT22;41082;52.822;6.666;2024-03-06T09:46:02;7.20;99.90
55211;DHT22;41082;52.822;6.666;2024-03-06T09:48:29;7.20;99.90
55211;DHT22;41082;52.822;6.666;2024-03-06T09:51:32;7.20;99.90
55211;DHT22;41082;52.822;6.666;2024-03-06T09:53:58;7.20;99.90
55211;DHT22;41082;52.822;6.666;2024-03-06T09:56:24;7.30;99.90
55211;DHT22;41082;52.822;6.666;2024-03-06T09:58:49;7.30;99.90
55211;DHT22;41082;52.822;6.666;2024-03-06T10:01:17;7.30;99.90
55211;DHT22;41082;52.822;6.666;2024-03-06T10:03:43;7.40;99.90
55211;DHT22;41082;52.822;6.666;2024-03-06T10:06:09;7.40;99.90
55211;DHT22;41082;52.822;6.666;2024-03-06T10:08:35;7.40;99.90
55211;DHT22;41082;52.822;6.666;2024-03-06T10:11:03;7.50;99.90
55211;DHT22;41082;52.822;6.666;2024-03-06T10:13:29;7.50;99.90
55211;DHT22;41082;52.822;6.666;2024-03-06T10:15:59;7.60;99.90
55211;DHT22;41082;52.822;6.666;2024-03-06T10:18:29;7.60;99.90
55211;DHT22;41082;52.822;6.666;2024-03-06T10:20:55;7.60;99.90
55211;DHT22;41082;52.822;6.666;2024-03-06T10:23:21;7.70;99.90
55211;DHT22;41082;52.822;6.666;2024-03-06T10:25:47;7.70;99.90
55211;DHT22;41082;52.822;6.666;2024-03-06T10:28:18;7.80;99.90
55211;DHT22;41082;52.822;6.666;2024-03-06T10:30:44;7.80;99.90
55211;DHT22;41082;52.822;6.666;2024-03-06T10:33:12;7.90;99.90
55211;DHT22;41082;52.822;6.666;2024-03-06T10:35:41;8.00;99.90
55211;DHT22;41082;52.822;6.666;2024-03-06T10:38:07;8.10;99.90
55211;DHT22;41082;52.822;6.666;2024-03-06T10:40:35;8.20;99.90
55211;DHT22;41082;52.822;6.666;2024-03-06T10:43:03;8.30;99.90
55211;DHT22;41082;52.822;6.666;2024-03-06T10:45:57;8.30;99.90
55211;DHT22;41082;52.822;6.666;2024-03-06T10:48:28;8.30;99.90
55211;DHT22;41082;52.822;6.666;2024-03-06T10:50:55;8.40;99.90
55211;DHT22;41082;52.822;6.666;2024-03-06T10:53:22;8.50;99.90
55211;DHT22;41082;52.822;6.666;2024-03-06T10:55:52;8.60;99.90
55211;DHT22;41082;52.822;6.666;2024-03-06T10:58:19;8.70;99.90
55211;DHT22;41082;52.822;6.666;2024-03-06T11:00:47;8.70;99.90
55211;DHT22;41082;52.822;6.666;2024-03-06T11:03:14;8.70;99.90
55211;DHT22;41082;52.822;6.666;2024-03-06T11:05:41;8.70;99.90
55211;DHT22;41082;52.822;6.666;2024-03-06T11:08:11;8.80;99.90
55211;DHT22;41082;52.822;6.666;2024-03-06T11:10:38;8.80;99.90
55211;DHT22;41082;52.822;6.666;2024-03-06T11:15:46;8.80;99.90
55211;DHT22;41082;52.822;6.666;2024-03-06T11:23:28;8.70;99.90
55211;DHT22;41082;52.822;6.666;2024-03-06T11:28:25;8.80;99.90
55211;DHT22;41082;52.822;6.666;2024-03-06T11:30:56;8.80;99.90
55211;DHT22;41082;52.822;6.666;2024-03-06T11:33:38;8.80;99.90
55211;DHT22;41082;52.822;6.666;2024-03-06T11:38:58;8.80;99.90
55211;DHT22;41082;52.822;6.666;2024-03-06T11:41:29;8.80;99.90
55211;DHT22;41082;52.822;6.666;2024-03-06T11:43:56;8.90;99.90
55211;DHT22;41082;52.822;6.666;2024-03-06T11:46:23;8.90;99.90
55211;DHT22;41082;52.822;6.666;2024-03-06T11:51:46;9.00;99.90
55211;DHT22;41082;52.822;6.666;2024-03-06T11:54:13;9.00;99.90
55211;DHT22;41082;52.822;6.666;2024-03-06T11:56:44;9.10;99.90
55211;DHT22;41082;52.822;6.666;2024-03-06T11:59:10;9.10;99.90
55211;DHT22;41082;52.822;6.666;2024-03-06T12:01:38;9.20;99.90
55211;DHT22;41082;52.822;6.666;2024-03-06T12:04:04;9.20;99.90
55211;DHT22;41082;52.822;6.666;2024-03-06T12:06:33;9.30;99.90
55211;DHT22;41082;52.822;6.666;2024-03-06T12:08:59;9.40;99.90
55211;DHT22;41082;52.822;6.666;2024-03-06T12:11:25;9.40;99.90
55211;DHT22;41082;52.822;6.666;2024-03-06T12:13:54;9.40;99.90
55211;DHT22;41082;52.822;6.666;2024-03-06T12:16:21;9.50;99.90
55211;DHT22;41082;52.822;6.666;2024-03-06T12:18:52;9.50;99.90
55211;DHT22;41082;52.822;6.666;2024-03-06T12:21:19;9.60;99.90
55211;DHT22;41082;52.822;6.666;2024-03-06T12:23:44;9.60;99.90
55211;DHT22;41082;52.822;6.666;2024-03-06T12:26:10;9.70;99.90
55211;DHT22;41082;52.822;6.666;2024-03-06T12:28:39;9.70;99.90
55211;DHT22;41082;52.822;6.666;2024-03-06T12:31:06;9.80;99.90
55211;DHT22;41082;52.822;6.666;2024-03-06T12:33:33;9.80;99.90
55211;DHT22;41082;52.822;6.666;2024-03-06T12:36:06;9.90;99.90
55211;DHT22;41082;52.822;6.666;2024-03-06T12:38:32;9.90;99.90
55211;DHT22;41082;52.822;6.666;2024-03-06T12:40:59;10.00;99.90
55211;DHT22;41082;52.822;6.666;2024-03-06T12:43:25;10.00;99.90
55211;DHT22;41082;52.822;6.666;2024-03-06T12:45:52;10.10;99.90
55211;DHT22;41082;52.822;6.666;2024-03-06T12:48:23;10.10;99.90
55211;DHT22;41082;52.822;6.666;2024-03-06T12:50:51;10.20;99.90
55211;DHT22;41082;52.822;6.666;2024-03-06T12:53:21;10.30;99.90
55211;DHT22;41082;52.822;6.666;2024-03-06T12:55:47;10.30;99.90
55211;DHT22;41082;52.822;6.666;2024-03-06T12:58:13;10.40;99.90
55211;DHT22;41082;52.822;6.666;2024-03-06T13:00:40;10.50;99.90
55211;DHT22;41082;52.822;6.666;2024-03-06T13:03:06;10.60;99.90
55211;DHT22;41082;52.822;6.666;2024-03-06T13:05:32;10.60;99.90
55211;DHT22;41082;52.822;6.666;2024-03-06T13:07:58;10.60;99.90
55211;DHT22;41082;52.822;6.666;2024-03-06T13:10:27;10.70;99.90
55211;DHT22;41082;52.822;6.666;2024-03-06T13:12:52;10.70;99.90
55211;DHT22;41082;52.822;6.666;2024-03-06T13:15:18;10.80;99.90
55211;DHT22;41082;52.822;6.666;2024-03-06T13:17:44;10.80;99.90
55211;DHT22;41082;52.822;6.666;2024-03-06T13:20:10;10.80;99.90
55211;DHT22;41082;52.822;6.666;2024-03-06T13:22:37;10.80;99.90
55211;DHT22;41082;52.822;6.666;2024-03-06T13:25:03;10.90;99.90
55211;DHT22;41082;52.822;6.666;2024-03-06T13:27:30;10.90;99.90
55211;DHT22;41082;52.822;6.666;2024-03-06T13:29:56;10.90;99.90
55211;DHT22;41082;52.822;6.666;2024-03-06T13:32:22;11.00;99.90
55211;DHT22;41082;52.822;6.666;2024-03-06T13:34:48;10.90;99.90
55211;DHT22;41082;52.822;6.666;2024-03-06T13:37:14;10.90;99.90
55211;DHT22;41082;52.822;6.666;2024-03-06T13:39:39;11.00;99.90
55211;DHT22;41082;52.822;6.666;2024-03-06T13:42:06;11.00;99.90
55211;DHT22;41082;52.822;6.666;2024-03-06T13:44:31;11.00;99.90
55211;DHT22;41082;52.822;6.666;2024-03-06T13:46:57;11.10;99.90
55211;DHT22;41082;52.822;6.666;2024-03-06T13:49:40;11.10;99.90
55211;DHT22;41082;52.822;6.666;2024-03-06T13:52:07;11.10;99.90
55211;DHT22;41082;52.822;6.666;2024-03-06T13:54:38;11.10;99.90
55211;DHT22;41082;52.822;6.666;2024-03-06T13:57:04;11.10;99.90
55211;DHT22;41082;52.822;6.666;2024-03-06T13:59:31;11.20;99.90
55211;DHT22;41082;52.822;6.666;2024-03-06T14:01:57;11.10;99.90
55211;DHT22;41082;52.822;6.666;2024-03-06T14:04:24;11.10;99.90
55211;DHT22;41082;52.822;6.666;2024-03-06T14:06:52;11.10;99.90
55211;DHT22;41082;52.822;6.666;2024-03-06T14:09:18;11.10;99.90
55211;DHT22;41082;52.822;6.666;2024-03-06T14:11:44;11.10;99.90
55211;DHT22;41082;52.822;6.666;2024-03-06T14:14:10;11.00;99.90
55211;DHT22;41082;52.822;6.666;2024-03-06T14:16:38;11.10;99.90
55211;DHT22;41082;52.822;6.666;2024-03-06T14:19:04;11.00;99.90
55211;DHT22;41082;52.822;6.666;2024-03-06T14:21:30;10.90;99.90
55211;DHT22;41082;52.822;6.666;2024-03-06T14:23:58;10.90;99.90
55211;DHT22;41082;52.822;6.666;2024-03-06T14:26:24;10.80;99.90
55211;DHT22;41082;52.822;6.666;2024-03-06T14:28:50;10.70;99.90
55211;DHT22;41082;52.822;6.666;2024-03-06T14:31:15;10.60;99.90
55211;DHT22;41082;52.822;6.666;2024-03-06T14:33:41;10.60;99.90
55211;DHT22;41082;52.822;6.666;2024-03-06T14:36:07;10.60;99.90
55211;DHT22;41082;52.822;6.666;2024-03-06T14:38:33;10.50;99.90
55211;DHT22;41082;52.822;6.666;2024-03-06T14:40:59;10.50;99.90
55211;DHT22;41082;52.822;6.666;2024-03-06T14:43:25;10.50;99.90
55211;DHT22;41082;52.822;6.666;2024-03-06T14:45:51;10.40;99.90
55211;DHT22;41082;52.822;6.666;2024-03-06T14:48:16;10.40;99.90
55211;DHT22;41082;52.822;6.666;2024-03-06T14:50:42;10.40;99.90
55211;DHT22;41082;52.822;6.666;2024-03-06T14:53:08;10.40;99.90
55211;DHT22;41082;52.822;6.666;2024-03-06T14:55:34;10.40;99.90
55211;DHT22;41082;52.822;6.666;2024-03-06T14:58:00;10.30;99.90
55211;DHT22;41082;52.822;6.666;2024-03-06T15:00:26;10.40;99.90
55211;DHT22;41082;52.822;6.666;2024-03-06T15:02:52;10.30;99.90
55211;DHT22;41082;52.822;6.666;2024-03-06T15:05:17;10.30;99.90
55211;DHT22;41082;52.822;6.666;2024-03-06T15:07:43;10.30;99.90
55211;DHT22;41082;52.822;6.666;2024-03-06T15:10:09;10.30;99.90
55211;DHT22;41082;52.822;6.666;2024-03-06T15:12:35;10.30;99.90
55211;DHT22;41082;52.822;6.666;2024-03-06T15:15:02;10.20;99.90
55211;DHT22;41082;52.822;6.666;2024-03-06T15:17:30;10.20;99.90
55211;DHT22;41082;52.822;6.666;2024-03-06T15:19:58;10.20;99.90
55211;DHT22;41082;52.822;6.666;2024-03-06T15:22:23;10.20;99.90
55211;DHT22;41082;52.822;6.666;2024-03-06T15:24:49;10.20;99.90
55211;DHT22;41082;52.822;6.666;2024-03-06T15:27:17;10.20;99.90
55211;DHT22;41082;52.822;6.666;2024-03-06T15:29:43;10.20;99.90
55211;DHT22;41082;52.822;6.666;2024-03-06T15:32:10;10.10;99.90
55211;DHT22;41082;52.822;6.666;2024-03-06T15:34:36;10.20;99.90
55211;DHT22;41082;52.822;6.666;2024-03-06T15:37:02;10.10;99.90
55211;DHT22;41082;52.822;6.666;2024-03-06T15:39:28;10.10;99.90
55211;DHT22;41082;52.822;6.666;2024-03-06T15:41:54;10.00;99.90
55211;DHT22;41082;52.822;6.666;2024-03-06T15:44:22;10.00;99.90
55211;DHT22;41082;52.822;6.666;2024-03-06T15:46:48;10.00;99.90
55211;DHT22;41082;52.822;6.666;2024-03-06T15:49:21;10.00;99.90
55211;DHT22;41082;52.822;6.666;2024-03-06T15:51:50;10.00;99.90
55211;DHT22;41082;52.822;6.666;2024-03-06T15:54:15;10.00;99.90
55211;DHT22;41082;52.822;6.666;2024-03-06T15:56:41;10.00;99.90